createdAt,value
2018-12-06T05:50:28.199Z,5.47
2018-12-06T05:53:16.173Z,5.13
2018-12-06T05:56:03.467Z,5.57
2018-12-06T05:58:50.713Z,4.80
2018-12-06T06:01:40.928Z,5.37
2018-12-06T06:04:27.858Z,5.07
2018-12-06T06:07:14.871Z,3.93
2018-12-06T06:10:02.854Z,5.67
2018-12-06T06:12:50.474Z,8.30
2018-12-06T06:15:37.874Z,4.27
2018-12-06T06:18:24.910Z,6.07
2018-12-06T06:21:11.907Z,6.80
2018-12-06T06:23:58.832Z,6.30
2018-12-06T06:26:46.009Z,7.60
2018-12-06T06:29:33.437Z,5.37
2018-12-06T06:32:21.732Z,6.45
2018-12-06T06:35:08.554Z,5.63
2018-12-06T06:37:55.635Z,3.40
2018-12-06T06:40:43.116Z,6.80
2018-12-06T06:43:30.305Z,6.43
2018-12-06T06:46:17.558Z,7.03
2018-12-06T06:49:05.134Z,7.17
2018-12-06T06:51:52.033Z,6.23
2018-12-06T06:54:39.150Z,5.80
2018-12-06T07:00:32.874Z,4.60
2018-12-06T07:03:19.741Z,4.70
2018-12-06T07:06:06.956Z,5.50
2018-12-06T07:08:54.325Z,8.47
2018-12-06T07:11:41.175Z,6.85
2018-12-06T07:17:35.829Z,5.87
2018-12-06T07:20:22.951Z,5.70
2018-12-06T07:23:11.195Z,4.80
2018-12-06T07:25:58.529Z,6.73
2018-12-06T07:29:01.312Z,4.03
2018-12-06T07:31:48.119Z,4.83
2018-12-06T07:34:36.995Z,7.93
2018-12-06T07:37:45.815Z,3.90
2018-12-06T07:43:49.524Z,6.63
2018-12-06T07:46:39.585Z,6.30
2018-12-06T07:49:27.021Z,7.13
2018-12-06T07:52:14.195Z,4.57
2018-12-06T07:55:01.854Z,4.17
2018-12-06T07:57:48.771Z,5.95
2018-12-06T08:00:35.865Z,6.15
2018-12-06T08:03:22.711Z,6.50
2018-12-06T08:06:09.663Z,5.80
2018-12-06T08:08:58.450Z,6.27
2018-12-06T08:11:45.154Z,4.73
2018-12-06T08:14:32.240Z,5.90
2018-12-06T08:17:19.166Z,4.47
2018-12-06T08:20:06.431Z,4.80
2018-12-06T08:22:53.635Z,5.30
2018-12-06T08:25:42.778Z,5.77
2018-12-06T08:28:28.402Z,7.33
2018-12-06T08:31:15.956Z,4.87
2018-12-06T08:34:06.421Z,5.53
2018-12-06T08:36:51.449Z,6.97
2018-12-06T08:39:40.881Z,5.60
2018-12-06T08:42:28.425Z,6.33
2018-12-06T08:45:24.122Z,5.83
2018-12-06T08:48:13.789Z,5.00
2018-12-06T08:51:04.637Z,7.90
2018-12-06T08:53:51.810Z,4.27
2018-12-06T08:56:43.346Z,6.53
2018-12-06T08:59:30.230Z,6.97
2018-12-06T09:05:23.351Z,7.20
2018-12-06T09:08:10.288Z,6.77
2018-12-06T09:10:57.166Z,6.83
2018-12-06T09:13:46.895Z,6.93
2018-12-06T09:16:35.682Z,7.82
2018-12-06T09:19:23.067Z,8.45
2018-12-06T09:22:09.922Z,8.20
2018-12-06T09:24:57.026Z,7.62
2018-12-06T09:27:43.755Z,9.57
2018-12-06T09:30:30.699Z,7.35
2018-12-06T09:33:17.509Z,8.17
2018-12-06T09:36:05.164Z,8.07
2018-12-06T09:38:51.956Z,8.07
2018-12-06T09:41:40.336Z,6.23
2018-12-06T09:44:27.643Z,7.37
2018-12-06T09:47:14.641Z,8.63
2018-12-06T09:50:01.771Z,8.03
2018-12-06T09:52:48.883Z,7.07
2018-12-06T09:55:36.519Z,8.47
2018-12-06T09:58:23.699Z,7.50
2018-12-06T10:01:10.862Z,8.13
2018-12-06T10:03:58.107Z,11.83
2018-12-06T10:06:45.528Z,7.53
2018-12-06T10:09:32.603Z,9.73
2018-12-06T10:12:19.824Z,8.30
2018-12-06T10:15:07.046Z,11.03
2018-12-06T10:17:57.491Z,7.60
2018-12-06T10:20:55.491Z,9.50
2018-12-06T10:23:42.567Z,7.67
2018-12-06T10:26:29.720Z,8.97
2018-12-06T10:29:16.735Z,9.60
2018-12-06T10:32:04.091Z,9.87
2018-12-06T10:34:53.520Z,7.60
2018-12-06T10:37:38.679Z,8.60
2018-12-06T10:40:25.775Z,8.83
2018-12-06T10:43:12.885Z,7.03
2018-12-06T10:45:59.878Z,8.70
2018-12-06T10:48:49.546Z,9.03
2018-12-06T10:51:40.167Z,10.27
2018-12-06T10:54:27.390Z,13.00
2018-12-06T10:57:14.200Z,8.23
2018-12-06T11:00:01.346Z,8.90
2018-12-06T11:02:48.563Z,11.67
2018-12-06T11:05:35.766Z,11.40
2018-12-06T11:08:23.130Z,9.33
2018-12-06T11:11:13.140Z,8.00
2018-12-06T11:14:00.255Z,10.63
2018-12-06T11:16:47.369Z,14.27
2018-12-06T11:19:34.756Z,11.27
2018-12-06T11:22:21.935Z,9.77
2018-12-06T11:25:08.878Z,9.67
2018-12-06T11:27:56.566Z,9.63
2018-12-06T11:30:43.360Z,10.23
2018-12-06T11:33:30.672Z,8.77
2018-12-06T11:36:18.138Z,9.48
2018-12-06T11:39:04.947Z,9.90
2018-12-06T11:41:52.121Z,9.30
2018-12-06T11:44:39.376Z,9.63
2018-12-06T11:47:26.783Z,8.73
2018-12-06T11:50:13.631Z,9.13
2018-12-06T11:53:00.635Z,7.53
2018-12-06T11:55:48.107Z,7.83
2018-12-06T11:58:35.168Z,7.93
2018-12-06T12:01:23.004Z,7.68
2018-12-06T12:04:10.227Z,7.13
2018-12-06T12:07:05.065Z,7.62
2018-12-06T12:09:57.072Z,7.75
2018-12-06T12:12:43.847Z,6.35
2018-12-06T12:15:31.282Z,5.62
2018-12-06T12:18:18.670Z,7.20
2018-12-06T12:21:05.812Z,6.63
2018-12-06T12:23:53.190Z,7.90
2018-12-06T12:26:40.198Z,7.90
2018-12-06T12:29:27.359Z,7.90
2018-12-06T12:32:14.273Z,7.27
2018-12-06T12:35:01.746Z,7.57
2018-12-06T12:37:48.933Z,7.00
2018-12-06T12:40:36.327Z,7.43
2018-12-06T12:43:23.355Z,6.40
2018-12-06T12:46:10.573Z,6.77
2018-12-06T12:49:05.044Z,6.00
2018-12-06T12:51:58.707Z,8.17
2018-12-06T12:54:45.579Z,6.13
2018-12-06T12:57:32.323Z,6.40
2018-12-06T13:00:20.611Z,7.07
2018-12-06T13:03:07.997Z,7.00
2018-12-06T13:05:54.871Z,7.43
2018-12-06T13:08:41.665Z,6.60
2018-12-06T13:11:28.626Z,8.30
2018-12-06T13:14:15.758Z,8.37
2018-12-06T13:17:02.746Z,6.47
2018-12-06T13:19:50.547Z,5.80
2018-12-06T13:22:42.991Z,6.77
2018-12-06T13:25:32.041Z,8.33
2018-12-06T13:28:18.652Z,6.27
2018-12-06T13:31:07.815Z,7.63
2018-12-06T13:33:56.887Z,6.07
2018-12-06T13:36:43.926Z,6.50
2018-12-06T13:39:30.941Z,6.03
2018-12-06T13:42:23.543Z,5.60
2018-12-06T13:45:06.340Z,7.47
2018-12-06T13:47:56.400Z,6.97
2018-12-06T13:50:43.445Z,6.73
2018-12-06T13:53:30.384Z,5.67
2018-12-06T13:56:17.447Z,5.40
2018-12-06T13:59:05.987Z,6.17
2018-12-06T14:01:52.788Z,5.03
2018-12-06T14:07:46.667Z,7.43
2018-12-06T14:10:33.420Z,6.73
2018-12-06T14:13:23.681Z,8.07
2018-12-06T14:22:20.373Z,6.83
2018-12-06T14:25:07.428Z,7.07
2018-12-06T14:27:54.179Z,6.25
2018-12-06T14:30:42.847Z,6.93
2018-12-06T14:33:30.837Z,6.30
2018-12-06T14:36:22.446Z,7.50
2018-12-06T14:39:09.248Z,6.97
2018-12-06T14:41:56.427Z,7.00
2018-12-06T14:44:43.800Z,5.10
2018-12-06T14:47:32.649Z,6.90
2018-12-06T14:50:19.590Z,5.43
2018-12-06T14:53:07.030Z,4.90
2018-12-06T14:55:54.255Z,4.77
2018-12-06T14:58:40.892Z,5.57
2018-12-06T15:01:28.024Z,5.33
2018-12-06T15:04:15.180Z,6.83
2018-12-06T15:07:02.306Z,6.83
2018-12-06T15:09:49.834Z,5.10
2018-12-06T15:12:36.851Z,6.77
2018-12-06T15:15:23.999Z,6.00
2018-12-06T15:18:12.431Z,6.13
2018-12-06T15:21:03.716Z,7.25
2018-12-06T15:23:51.750Z,9.20
2018-12-06T15:26:39.384Z,7.03
2018-12-06T15:29:27.413Z,8.17
2018-12-06T15:32:16.489Z,7.47
2018-12-06T15:35:03.726Z,6.83
2018-12-06T15:37:55.732Z,6.87
2018-12-06T15:40:43.953Z,7.30
2018-12-06T15:43:32.230Z,7.87
2018-12-06T15:46:21.282Z,9.27
2018-12-06T15:49:09.590Z,6.73
2018-12-06T15:52:01.128Z,8.85
2018-12-06T15:54:48.804Z,9.10
2018-12-06T15:57:36.446Z,7.13
2018-12-06T16:00:24.521Z,8.88
2018-12-06T16:03:12.868Z,9.73
2018-12-06T16:06:02.237Z,7.77
2018-12-06T16:08:54.369Z,6.97
2018-12-06T16:11:48.091Z,8.03
2018-12-06T16:14:40.287Z,8.07
2018-12-06T16:17:28.650Z,9.87
2018-12-06T16:20:17.510Z,8.20
2018-12-06T16:26:14.043Z,9.37
2018-12-06T16:29:09.029Z,8.60
2018-12-06T16:35:03.716Z,8.40
2018-12-06T16:37:51.382Z,9.60
2018-12-06T16:40:38.988Z,11.00
2018-12-06T16:43:27.610Z,11.30
2018-12-06T16:46:16.808Z,11.27
2018-12-06T16:49:10.097Z,9.23
2018-12-06T16:51:53.463Z,9.90
2018-12-06T16:54:45.103Z,11.30
2018-12-06T16:57:33.107Z,9.37
2018-12-06T17:00:21.199Z,10.87
2018-12-06T17:03:22.592Z,11.67
2018-12-06T17:06:11.868Z,9.03
2018-12-06T17:08:58.533Z,12.00
2018-12-06T17:11:45.564Z,12.03
2018-12-06T17:14:33.244Z,13.33
2018-12-06T17:17:25.597Z,10.33
2018-12-06T17:20:12.921Z,12.23
2018-12-06T17:22:59.889Z,11.90
2018-12-06T17:25:50.120Z,10.73
2018-12-06T17:28:38.519Z,11.67
2018-12-06T17:31:27.992Z,11.97
2018-12-06T17:34:35.698Z,10.27
2018-12-06T17:37:25.159Z,9.97
2018-12-06T17:40:16.919Z,12.13
2018-12-06T17:43:15.819Z,11.40
2018-12-06T17:46:04.750Z,11.73
2018-12-06T17:52:13.095Z,9.23
2018-12-06T17:55:00.428Z,11.27
2018-12-06T17:57:52.652Z,8.93
2018-12-06T18:00:39.714Z,10.23
2018-12-06T18:03:26.664Z,10.40
2018-12-06T18:06:15.947Z,8.57
2018-12-06T18:09:05.975Z,9.13
2018-12-06T18:11:53.364Z,8.50
2018-12-06T18:14:40.177Z,11.10
2018-12-06T18:17:27.466Z,9.50
2018-12-06T18:20:14.330Z,10.03
2018-12-06T18:23:01.482Z,8.27
2018-12-06T18:25:50.779Z,9.43
2018-12-06T18:28:43.471Z,11.02
2018-12-06T18:31:31.756Z,10.40
2018-12-06T18:34:18.897Z,10.07
2018-12-06T18:37:08.353Z,12.27
2018-12-06T18:40:00.337Z,13.67
2018-12-06T18:42:57.892Z,12.20
2018-12-06T18:45:50.213Z,10.60
2018-12-06T18:48:39.921Z,10.07
2018-12-06T18:51:33.524Z,9.87
2018-12-06T18:54:22.993Z,9.60
2018-12-06T18:57:13.386Z,13.30
2018-12-06T19:00:02.311Z,13.20
2018-12-06T19:02:52.151Z,10.73
2018-12-06T19:05:39.375Z,10.67
2018-12-06T19:08:45.502Z,9.30
2018-12-06T19:11:41.326Z,11.70
2018-12-06T19:17:44.151Z,10.03
2018-12-06T19:20:34.589Z,10.30
2018-12-06T19:23:22.751Z,10.00
2018-12-06T19:26:11.674Z,12.00
2018-12-06T19:28:59.131Z,14.70
2018-12-06T19:31:46.655Z,12.23
2018-12-06T19:34:35.046Z,11.20
2018-12-06T19:37:24.678Z,11.27
2018-12-06T19:40:16.171Z,11.07
2018-12-06T19:43:04.011Z,9.47
2018-12-06T19:45:51.833Z,8.73
2018-12-06T19:48:40.892Z,9.80
2018-12-06T19:51:32.895Z,9.33
2018-12-06T19:54:20.531Z,9.13
2018-12-06T19:57:08.000Z,9.37
2018-12-06T19:59:55.403Z,9.67
2018-12-06T20:05:49.480Z,10.27
2018-12-06T20:08:36.552Z,9.40
2018-12-06T20:11:32.943Z,8.50
2018-12-06T20:14:23.122Z,12.40
2018-12-06T20:17:11.518Z,13.37
2018-12-06T20:20:23.376Z,12.27
2018-12-06T20:29:27.042Z,11.70
2018-12-06T20:32:15.407Z,12.57
2018-12-06T20:35:04.626Z,11.07
2018-12-06T20:37:53.614Z,13.27
2018-12-06T20:40:42.083Z,13.50
2018-12-06T20:43:31.646Z,13.60
2018-12-06T20:46:20.872Z,13.20
2018-12-06T20:49:08.506Z,13.17
2018-12-06T20:51:57.780Z,13.47
2018-12-06T20:57:55.084Z,10.67
2018-12-06T21:03:51.750Z,11.33
2018-12-06T21:06:45.605Z,12.93
2018-12-06T21:12:52.562Z,11.40
2018-12-06T21:25:03.795Z,10.37
2018-12-06T21:27:51.296Z,9.10
2018-12-06T21:30:38.971Z,8.87
2018-12-06T21:33:26.486Z,11.87
2018-12-06T21:36:17.120Z,9.93
2018-12-06T21:39:07.892Z,10.55
2018-12-06T21:41:58.189Z,10.45
2018-12-06T21:44:45.140Z,8.40
2018-12-06T21:47:44.546Z,9.47
2018-12-06T21:50:33.474Z,7.27
2018-12-06T21:56:28.141Z,9.47
2018-12-06T21:59:15.689Z,9.53
2018-12-06T22:05:31.396Z,7.77
2018-12-06T22:08:20.668Z,6.13
2018-12-06T22:11:07.542Z,8.97
2018-12-06T22:13:55.175Z,7.55
2018-12-06T22:16:42.316Z,8.60
2018-12-06T22:19:29.279Z,9.48
2018-12-06T22:22:16.173Z,10.27
2018-12-06T22:25:02.880Z,12.83
2018-12-06T22:27:50.048Z,9.67
2018-12-06T22:30:37.445Z,10.13
2018-12-06T22:33:24.479Z,9.20
2018-12-06T22:36:11.797Z,8.33
2018-12-06T22:39:00.611Z,7.93
2018-12-06T22:41:47.784Z,8.57
2018-12-06T22:44:35.062Z,11.63
2018-12-06T22:50:29.113Z,8.10
2018-12-06T22:53:16.745Z,7.25
2018-12-06T22:56:05.684Z,5.90
2018-12-06T22:58:52.819Z,5.70
2018-12-06T23:01:41.190Z,8.10
2018-12-06T23:04:28.541Z,6.07
2018-12-06T23:07:16.514Z,6.20
2018-12-06T23:16:19.666Z,7.33
2018-12-06T23:19:10.102Z,6.97
2018-12-06T23:25:05.898Z,6.50
2018-12-06T23:31:02.266Z,7.25
2018-12-06T23:33:50.408Z,9.07
2018-12-06T23:36:37.213Z,6.80
2018-12-06T23:42:31.437Z,7.37
2018-12-06T23:45:21.767Z,7.37
2018-12-06T23:48:09.171Z,6.00
2018-12-06T23:51:10.382Z,6.50
2018-12-06T23:53:57.626Z,4.83
2018-12-06T23:56:45.586Z,7.27
2018-12-06T23:59:34.106Z,7.13
